Melville, Montana
Current Conditions -  °F | °C
As of 10:53 PM on Friday 28 Nov 2014 (Local Time) from KLVM Reporting Station
Clear Clear  
Wind Chill: 53°   Ceiling: Unl
Heat Index: 53°   Visibility: 10mi
Dew Point: 14°   Wind: 35mph
Humidity: 21%   Direction: 220°SW
Pressure: 29.36"   Gusts: 49mph
Location:  46.1°N, 109.96°W
Report Text: KLVM 290553Z AUTO 22030G43KT 10SM CLR 12/M10 A2936 RMK AO2 PK WND 22045/0540 SLP918 T01171100 10122 20106 56017
Loading
Personal Weather Stations






























Interactive Weather Map New forecast layout! Learn more

10-Day Weather Forecast

Advertisements
Track Severe Weather on mobile